sensor_id;sensor_type;location;lat;lon;timestamp;P1;durP1;ratioP1;P2;durP2;ratioP2
19651;SDS011;9974;52.146;14.668;2022-08-02T00:00:19;6.35;;;3.28;;
19651;SDS011;9974;52.146;14.668;2022-08-02T00:02:45;4.63;;;3.25;;
19651;SDS011;9974;52.146;14.668;2022-08-02T00:05:11;6.55;;;3.58;;
19651;SDS011;9974;52.146;14.668;2022-08-02T00:07:38;4.68;;;3.25;;
19651;SDS011;9974;52.146;14.668;2022-08-02T00:10:04;5.47;;;3.05;;
19651;SDS011;9974;52.146;14.668;2022-08-02T00:12:32;4.93;;;3.33;;
19651;SDS011;9974;52.146;14.668;2022-08-02T00:14:58;6.30;;;3.20;;
19651;SDS011;9974;52.146;14.668;2022-08-02T00:17:24;4.60;;;2.83;;
19651;SDS011;9974;52.146;14.668;2022-08-02T00:19:50;5.38;;;3.65;;
19651;SDS011;9974;52.146;14.668;2022-08-02T00:22:16;6.53;;;3.92;;
19651;SDS011;9974;52.146;14.668;2022-08-02T00:24:42;6.60;;;3.15;;
19651;SDS011;9974;52.146;14.668;2022-08-02T00:27:08;5.40;;;3.47;;
19651;SDS011;9974;52.146;14.668;2022-08-02T00:29:34;6.32;;;3.30;;
19651;SDS011;9974;52.146;14.668;2022-08-02T00:32:00;6.05;;;3.28;;
19651;SDS011;9974;52.146;14.668;2022-08-02T00:34:28;5.50;;;3.38;;
19651;SDS011;9974;52.146;14.668;2022-08-02T00:36:53;5.78;;;3.38;;
19651;SDS011;9974;52.146;14.668;2022-08-02T00:39:19;7.40;;;3.30;;
19651;SDS011;9974;52.146;14.668;2022-08-02T00:41:46;4.30;;;2.92;;
19651;SDS011;9974;52.146;14.668;2022-08-02T00:44:18;4.72;;;3.20;;
19651;SDS011;9974;52.146;14.668;2022-08-02T00:46:45;6.78;;;3.55;;
19651;SDS011;9974;52.146;14.668;2022-08-02T00:49:12;6.85;;;3.70;;
19651;SDS011;9974;52.146;14.668;2022-08-02T00:51:38;6.72;;;4.03;;
19651;SDS011;9974;52.146;14.668;2022-08-02T00:54:05;6.63;;;3.55;;
19651;SDS011;9974;52.146;14.668;2022-08-02T00:56:32;4.47;;;2.70;;
19651;SDS011;9974;52.146;14.668;2022-08-02T00:58:58;5.35;;;3.40;;
19651;SDS011;9974;52.146;14.668;2022-08-02T01:01:23;4.38;;;3.63;;
19651;SDS011;9974;52.146;14.668;2022-08-02T01:04:03;5.63;;;3.58;;
19651;SDS011;9974;52.146;14.668;2022-08-02T01:06:30;6.43;;;3.17;;
19651;SDS011;9974;52.146;14.668;2022-08-02T01:08:57;6.82;;;3.17;;
19651;SDS011;9974;52.146;14.668;2022-08-02T01:11:24;4.45;;;3.17;;
19651;SDS011;9974;52.146;14.668;2022-08-02T01:13:50;5.05;;;2.78;;
19651;SDS011;9974;52.146;14.668;2022-08-02T01:16:18;11.27;;;4.20;;
19651;SDS011;9974;52.146;14.668;2022-08-02T01:18:50;4.32;;;3.42;;
19651;SDS011;9974;52.146;14.668;2022-08-02T01:21:25;7.50;;;3.30;;
19651;SDS011;9974;52.146;14.668;2022-08-02T01:24:11;11.18;;;3.50;;
19651;SDS011;9974;52.146;14.668;2022-08-02T01:26:54;4.97;;;3.35;;
19651;SDS011;9974;52.146;14.668;2022-08-02T01:29:56;8.43;;;3.45;;
19651;SDS011;9974;52.146;14.668;2022-08-02T01:32:24;8.82;;;3.72;;
19651;SDS011;9974;52.146;14.668;2022-08-02T01:34:56;10.00;;;3.92;;
19651;SDS011;9974;52.146;14.668;2022-08-02T01:37:43;3.85;;;3.17;;
19651;SDS011;9974;52.146;14.668;2022-08-02T01:40:33;8.48;;;3.67;;
19651;SDS011;9974;52.146;14.668;2022-08-02T01:43:01;6.25;;;3.58;;
19651;SDS011;9974;52.146;14.668;2022-08-02T01:45:29;6.35;;;3.90;;
19651;SDS011;9974;52.146;14.668;2022-08-02T01:47:58;6.68;;;3.53;;
19651;SDS011;9974;52.146;14.668;2022-08-02T01:50:28;8.55;;;4.55;;
19651;SDS011;9974;52.146;14.668;2022-08-02T01:52:59;5.57;;;4.68;;
19651;SDS011;9974;52.146;14.668;2022-08-02T01:55:33;6.13;;;4.55;;
19651;SDS011;9974;52.146;14.668;2022-08-02T01:58:10;6.00;;;4.80;;
19651;SDS011;9974;52.146;14.668;2022-08-02T02:00:40;6.40;;;5.28;;
19651;SDS011;9974;52.146;14.668;2022-08-02T02:03:08;6.57;;;5.05;;
19651;SDS011;9974;52.146;14.668;2022-08-02T02:05:37;6.32;;;4.88;;
19651;SDS011;9974;52.146;14.668;2022-08-02T02:08:04;7.07;;;4.45;;
19651;SDS011;9974;52.146;14.668;2022-08-02T02:10:32;7.22;;;4.90;;
19651;SDS011;9974;52.146;14.668;2022-08-02T02:13:03;7.88;;;5.22;;
19651;SDS011;9974;52.146;14.668;2022-08-02T02:15:32;9.15;;;5.53;;
19651;SDS011;9974;52.146;14.668;2022-08-02T02:18:00;8.55;;;5.20;;
19651;SDS011;9974;52.146;14.668;2022-08-02T02:20:27;5.95;;;5.00;;
19651;SDS011;9974;52.146;14.668;2022-08-02T02:22:53;7.13;;;4.72;;
19651;SDS011;9974;52.146;14.668;2022-08-02T02:25:20;6.18;;;4.57;;
19651;SDS011;9974;52.146;14.668;2022-08-02T02:27:54;10.63;;;4.45;;
19651;SDS011;9974;52.146;14.668;2022-08-02T02:30:29;5.75;;;4.13;;
19651;SDS011;9974;52.146;14.668;2022-08-02T02:32:57;8.20;;;4.40;;
19651;SDS011;9974;52.146;14.668;2022-08-02T02:35:26;7.10;;;4.45;;
19651;SDS011;9974;52.146;14.668;2022-08-02T02:37:57;7.18;;;4.28;;
19651;SDS011;9974;52.146;14.668;2022-08-02T02:40:27;7.22;;;4.70;;
19651;SDS011;9974;52.146;14.668;2022-08-02T02:42:54;5.88;;;4.22;;
19651;SDS011;9974;52.146;14.668;2022-08-02T02:45:22;8.40;;;3.38;;
19651;SDS011;9974;52.146;14.668;2022-08-02T02:47:48;6.70;;;3.63;;
19651;SDS011;9974;52.146;14.668;2022-08-02T02:50:16;5.55;;;4.53;;
19651;SDS011;9974;52.146;14.668;2022-08-02T02:52:45;8.35;;;3.97;;
19651;SDS011;9974;52.146;14.668;2022-08-02T02:55:12;6.55;;;4.18;;
19651;SDS011;9974;52.146;14.668;2022-08-02T02:57:39;6.47;;;3.97;;
19651;SDS011;9974;52.146;14.668;2022-08-02T03:00:09;7.03;;;3.60;;
19651;SDS011;9974;52.146;14.668;2022-08-02T03:02:37;5.68;;;4.07;;
19651;SDS011;9974;52.146;14.668;2022-08-02T03:05:06;5.47;;;3.80;;
19651;SDS011;9974;52.146;14.668;2022-08-02T03:07:33;5.38;;;3.75;;
19651;SDS011;9974;52.146;14.668;2022-08-02T03:09:59;6.60;;;4.05;;
19651;SDS011;9974;52.146;14.668;2022-08-02T03:12:25;6.15;;;4.07;;
19651;SDS011;9974;52.146;14.668;2022-08-02T03:14:53;6.15;;;4.40;;
19651;SDS011;9974;52.146;14.668;2022-08-02T03:17:19;5.53;;;3.35;;
19651;SDS011;9974;52.146;14.668;2022-08-02T03:19:44;5.18;;;4.13;;
19651;SDS011;9974;52.146;14.668;2022-08-02T03:22:11;5.00;;;3.72;;
19651;SDS011;9974;52.146;14.668;2022-08-02T03:24:36;7.63;;;4.00;;
19651;SDS011;9974;52.146;14.668;2022-08-02T03:27:02;7.72;;;4.20;;
19651;SDS011;9974;52.146;14.668;2022-08-02T03:29:28;5.43;;;4.60;;
19651;SDS011;9974;52.146;14.668;2022-08-02T03:31:54;4.88;;;4.00;;
19651;SDS011;9974;52.146;14.668;2022-08-02T03:34:20;4.72;;;3.55;;
19651;SDS011;9974;52.146;14.668;2022-08-02T03:36:47;5.03;;;3.88;;
19651;SDS011;9974;52.146;14.668;2022-08-02T03:39:16;5.13;;;3.50;;
19651;SDS011;9974;52.146;14.668;2022-08-02T03:41:44;7.20;;;3.58;;
19651;SDS011;9974;52.146;14.668;2022-08-02T03:44:11;7.18;;;4.50;;
19651;SDS011;9974;52.146;14.668;2022-08-02T03:46:37;6.55;;;4.15;;
19651;SDS011;9974;52.146;14.668;2022-08-02T03:49:04;12.57;;;4.75;;
19651;SDS011;9974;52.146;14.668;2022-08-02T03:51:32;8.50;;;4.13;;
19651;SDS011;9974;52.146;14.668;2022-08-02T03:53:59;6.60;;;4.15;;
19651;SDS011;9974;52.146;14.668;2022-08-02T03:56:26;6.63;;;4.63;;
19651;SDS011;9974;52.146;14.668;2022-08-02T03:59:04;5.53;;;4.03;;
19651;SDS011;9974;52.146;14.668;2022-08-02T04:01:35;5.25;;;3.83;;
19651;SDS011;9974;52.146;14.668;2022-08-02T04:04:00;6.85;;;4.15;;
19651;SDS011;9974;52.146;14.668;2022-08-02T04:06:26;5.43;;;4.10;;
19651;SDS011;9974;52.146;14.668;2022-08-02T04:08:52;6.97;;;3.85;;
19651;SDS011;9974;52.146;14.668;2022-08-02T04:11:18;6.72;;;3.33;;
19651;SDS011;9974;52.146;14.668;2022-08-02T04:14:00;7.30;;;3.53;;
19651;SDS011;9974;52.146;14.668;2022-08-02T04:16:45;8.93;;;4.60;;
19651;SDS011;9974;52.146;14.668;2022-08-02T04:22:09;6.85;;;4.47;;
19651;SDS011;9974;52.146;14.668;2022-08-02T04:24:42;8.15;;;4.50;;
19651;SDS011;9974;52.146;14.668;2022-08-02T04:27:15;7.68;;;4.00;;
19651;SDS011;9974;52.146;14.668;2022-08-02T04:29:41;9.05;;;4.80;;
19651;SDS011;9974;52.146;14.668;2022-08-02T04:32:08;11.40;;;3.83;;
19651;SDS011;9974;52.146;14.668;2022-08-02T04:34:34;8.52;;;4.50;;
19651;SDS011;9974;52.146;14.668;2022-08-02T04:37:00;6.30;;;4.00;;
19651;SDS011;9974;52.146;14.668;2022-08-02T04:39:26;7.97;;;4.03;;
19651;SDS011;9974;52.146;14.668;2022-08-02T04:41:52;8.13;;;4.10;;
19651;SDS011;9974;52.146;14.668;2022-08-02T04:44:18;8.93;;;4.60;;
19651;SDS011;9974;52.146;14.668;2022-08-02T04:46:44;6.25;;;4.57;;
19651;SDS011;9974;52.146;14.668;2022-08-02T04:49:10;5.80;;;3.90;;
19651;SDS011;9974;52.146;14.668;2022-08-02T04:51:37;8.68;;;3.83;;
19651;SDS011;9974;52.146;14.668;2022-08-02T04:54:06;7.35;;;4.25;;
19651;SDS011;9974;52.146;14.668;2022-08-02T04:56:33;6.63;;;4.20;;
19651;SDS011;9974;52.146;14.668;2022-08-02T04:58:59;8.15;;;3.78;;
19651;SDS011;9974;52.146;14.668;2022-08-02T05:01:25;6.97;;;4.40;;
19651;SDS011;9974;52.146;14.668;2022-08-02T05:03:51;5.32;;;4.20;;
19651;SDS011;9974;52.146;14.668;2022-08-02T05:06:17;5.95;;;3.67;;
19651;SDS011;9974;52.146;14.668;2022-08-02T05:08:49;6.63;;;3.95;;
19651;SDS011;9974;52.146;14.668;2022-08-02T05:11:14;6.38;;;4.20;;
19651;SDS011;9974;52.146;14.668;2022-08-02T05:13:41;7.45;;;4.03;;
19651;SDS011;9974;52.146;14.668;2022-08-02T05:16:06;6.03;;;4.20;;
19651;SDS011;9974;52.146;14.668;2022-08-02T05:18:32;4.63;;;3.40;;
19651;SDS011;9974;52.146;14.668;2022-08-02T05:20:58;7.68;;;4.05;;
19651;SDS011;9974;52.146;14.668;2022-08-02T05:23:24;8.27;;;4.32;;
19651;SDS011;9974;52.146;14.668;2022-08-02T05:25:50;7.55;;;4.88;;
19651;SDS011;9974;52.146;14.668;2022-08-02T05:28:16;7.85;;;4.05;;
19651;SDS011;9974;52.146;14.668;2022-08-02T05:30:42;8.23;;;4.38;;
19651;SDS011;9974;52.146;14.668;2022-08-02T05:33:08;8.40;;;4.15;;
19651;SDS011;9974;52.146;14.668;2022-08-02T05:35:35;9.55;;;4.03;;
19651;SDS011;9974;52.146;14.668;2022-08-02T05:38:01;5.82;;;3.88;;
19651;SDS011;9974;52.146;14.668;2022-08-02T05:40:27;5.13;;;3.08;;
19651;SDS011;9974;52.146;14.668;2022-08-02T05:42:55;10.57;;;3.05;;
19651;SDS011;9974;52.146;14.668;2022-08-02T05:45:21;9.70;;;3.42;;
19651;SDS011;9974;52.146;14.668;2022-08-02T05:47:47;5.45;;;2.58;;
19651;SDS011;9974;52.146;14.668;2022-08-02T05:50:13;5.80;;;2.53;;
19651;SDS011;9974;52.146;14.668;2022-08-02T05:52:42;10.90;;;2.97;;
19651;SDS011;9974;52.146;14.668;2022-08-02T05:55:39;5.13;;;2.60;;
19651;SDS011;9974;52.146;14.668;2022-08-02T05:58:25;5.43;;;2.90;;
19651;SDS011;9974;52.146;14.668;2022-08-02T06:01:02;9.48;;;3.42;;
19651;SDS011;9974;52.146;14.668;2022-08-02T06:03:31;9.43;;;2.78;;
19651;SDS011;9974;52.146;14.668;2022-08-02T06:06:12;7.82;;;2.25;;
19651;SDS011;9974;52.146;14.668;2022-08-02T06:08:43;8.82;;;2.28;;
19651;SDS011;9974;52.146;14.668;2022-08-02T06:11:17;9.40;;;2.20;;
19651;SDS011;9974;52.146;14.668;2022-08-02T06:13:46;12.60;;;2.38;;
19651;SDS011;9974;52.146;14.668;2022-08-02T06:16:12;8.63;;;2.47;;
19651;SDS011;9974;52.146;14.668;2022-08-02T06:18:41;7.40;;;2.40;;
19651;SDS011;9974;52.146;14.668;2022-08-02T06:21:08;7.18;;;2.42;;
19651;SDS011;9974;52.146;14.668;2022-08-02T06:23:35;4.93;;;2.53;;
19651;SDS011;9974;52.146;14.668;2022-08-02T06:26:06;3.67;;;1.95;;
19651;SDS011;9974;52.146;14.668;2022-08-02T06:28:36;7.68;;;2.17;;
19651;SDS011;9974;52.146;14.668;2022-08-02T06:31:03;7.22;;;2.20;;
19651;SDS011;9974;52.146;14.668;2022-08-02T06:33:30;5.10;;;1.80;;
19651;SDS011;9974;52.146;14.668;2022-08-02T06:36:01;6.50;;;1.95;;
19651;SDS011;9974;52.146;14.668;2022-08-02T06:38:32;6.30;;;2.05;;
19651;SDS011;9974;52.146;14.668;2022-08-02T06:41:06;7.00;;;2.10;;
19651;SDS011;9974;52.146;14.668;2022-08-02T06:43:54;9.07;;;1.80;;
19651;SDS011;9974;52.146;14.668;2022-08-02T06:46:27;5.30;;;1.52;;
19651;SDS011;9974;52.146;14.668;2022-08-02T06:48:53;13.25;;;1.90;;
19651;SDS011;9974;52.146;14.668;2022-08-02T06:51:19;4.88;;;1.55;;
19651;SDS011;9974;52.146;14.668;2022-08-02T06:53:46;5.25;;;1.70;;
19651;SDS011;9974;52.146;14.668;2022-08-02T06:56:12;2.67;;;1.15;;
19651;SDS011;9974;52.146;14.668;2022-08-02T06:58:38;6.75;;;1.92;;
19651;SDS011;9974;52.146;14.668;2022-08-02T07:01:04;3.28;;;1.55;;
19651;SDS011;9974;52.146;14.668;2022-08-02T07:03:32;5.28;;;2.22;;
19651;SDS011;9974;52.146;14.668;2022-08-02T07:05:58;6.38;;;2.08;;
19651;SDS011;9974;52.146;14.668;2022-08-02T07:08:24;6.22;;;1.83;;
19651;SDS011;9974;52.146;14.668;2022-08-02T07:10:51;5.88;;;1.45;;
19651;SDS011;9974;52.146;14.668;2022-08-02T07:13:16;6.68;;;2.17;;
19651;SDS011;9974;52.146;14.668;2022-08-02T07:15:42;6.80;;;2.58;;
19651;SDS011;9974;52.146;14.668;2022-08-02T07:18:08;7.15;;;2.15;;
19651;SDS011;9974;52.146;14.668;2022-08-02T07:20:39;5.05;;;1.70;;
19651;SDS011;9974;52.146;14.668;2022-08-02T07:23:06;2.47;;;1.20;;
19651;SDS011;9974;52.146;14.668;2022-08-02T07:25:31;4.18;;;1.67;;
19651;SDS011;9974;52.146;14.668;2022-08-02T07:27:58;9.10;;;1.88;;
19651;SDS011;9974;52.146;14.668;2022-08-02T07:30:24;6.75;;;1.85;;
19651;SDS011;9974;52.146;14.668;2022-08-02T07:32:50;6.85;;;1.67;;
19651;SDS011;9974;52.146;14.668;2022-08-02T07:35:16;6.10;;;1.33;;
19651;SDS011;9974;52.146;14.668;2022-08-02T07:37:42;5.40;;;1.70;;
19651;SDS011;9974;52.146;14.668;2022-08-02T07:40:10;6.50;;;2.00;;
19651;SDS011;9974;52.146;14.668;2022-08-02T07:42:37;6.00;;;1.67;;
19651;SDS011;9974;52.146;14.668;2022-08-02T07:45:03;5.65;;;1.58;;
19651;SDS011;9974;52.146;14.668;2022-08-02T07:47:29;5.65;;;1.38;;
19651;SDS011;9974;52.146;14.668;2022-08-02T07:49:55;8.15;;;2.13;;
19651;SDS011;9974;52.146;14.668;2022-08-02T07:52:21;3.58;;;1.42;;
19651;SDS011;9974;52.146;14.668;2022-08-02T07:54:47;7.15;;;1.67;;
19651;SDS011;9974;52.146;14.668;2022-08-02T07:57:13;7.38;;;1.73;;
19651;SDS011;9974;52.146;14.668;2022-08-02T07:59:39;5.70;;;1.38;;
19651;SDS011;9974;52.146;14.668;2022-08-02T08:02:05;4.75;;;1.30;;
19651;SDS011;9974;52.146;14.668;2022-08-02T08:04:31;11.82;;;1.90;;
19651;SDS011;9974;52.146;14.668;2022-08-02T08:06:57;8.13;;;1.70;;
19651;SDS011;9974;52.146;14.668;2022-08-02T08:09:23;10.80;;;2.03;;
19651;SDS011;9974;52.146;14.668;2022-08-02T08:11:49;9.68;;;2.00;;
19651;SDS011;9974;52.146;14.668;2022-08-02T08:14:14;7.32;;;1.88;;
19651;SDS011;9974;52.146;14.668;2022-08-02T08:16:40;7.85;;;1.73;;
19651;SDS011;9974;52.146;14.668;2022-08-02T08:19:06;9.02;;;2.35;;
19651;SDS011;9974;52.146;14.668;2022-08-02T08:21:32;4.80;;;1.50;;
19651;SDS011;9974;52.146;14.668;2022-08-02T08:23:59;2.97;;;1.27;;
19651;SDS011;9974;52.146;14.668;2022-08-02T08:26:25;7.45;;;1.45;;
19651;SDS011;9974;52.146;14.668;2022-08-02T08:28:51;4.88;;;1.60;;
19651;SDS011;9974;52.146;14.668;2022-08-02T08:31:17;7.78;;;1.90;;
19651;SDS011;9974;52.146;14.668;2022-08-02T08:33:43;4.15;;;1.30;;
19651;SDS011;9974;52.146;14.668;2022-08-02T08:36:09;4.63;;;1.73;;
19651;SDS011;9974;52.146;14.668;2022-08-02T08:38:35;7.85;;;1.58;;
19651;SDS011;9974;52.146;14.668;2022-08-02T08:41:01;6.50;;;1.70;;
19651;SDS011;9974;52.146;14.668;2022-08-02T08:43:27;5.05;;;1.73;;
19651;SDS011;9974;52.146;14.668;2022-08-02T08:45:53;9.40;;;1.60;;
19651;SDS011;9974;52.146;14.668;2022-08-02T08:48:19;7.38;;;1.73;;
19651;SDS011;9974;52.146;14.668;2022-08-02T08:51:03;4.25;;;1.95;;
19651;SDS011;9974;52.146;14.668;2022-08-02T08:53:38;5.00;;;1.50;;
19651;SDS011;9974;52.146;14.668;2022-08-02T08:56:07;10.18;;;2.28;;
19651;SDS011;9974;52.146;14.668;2022-08-02T08:58:36;7.43;;;1.88;;
19651;SDS011;9974;52.146;14.668;2022-08-02T09:01:04;4.50;;;1.80;;
19651;SDS011;9974;52.146;14.668;2022-08-02T09:03:29;4.35;;;1.55;;
19651;SDS011;9974;52.146;14.668;2022-08-02T09:05:58;4.13;;;1.35;;
19651;SDS011;9974;52.146;14.668;2022-08-02T09:08:24;9.90;;;2.20;;
19651;SDS011;9974;52.146;14.668;2022-08-02T09:10:50;8.50;;;2.08;;
19651;SDS011;9974;52.146;14.668;2022-08-02T09:13:17;11.20;;;1.95;;
19651;SDS011;9974;52.146;14.668;2022-08-02T09:15:52;11.45;;;1.80;;
19651;SDS011;9974;52.146;14.668;2022-08-02T09:18:28;7.70;;;2.10;;
19651;SDS011;9974;52.146;14.668;2022-08-02T09:20:59;4.88;;;1.90;;
19651;SDS011;9974;52.146;14.668;2022-08-02T09:23:32;10.65;;;2.45;;
19651;SDS011;9974;52.146;14.668;2022-08-02T09:26:11;4.25;;;1.60;;
19651;SDS011;9974;52.146;14.668;2022-08-02T09:28:45;4.55;;;1.70;;
19651;SDS011;9974;52.146;14.668;2022-08-02T09:31:18;3.30;;;1.60;;
19651;SDS011;9974;52.146;14.668;2022-08-02T09:33:49;6.05;;;1.75;;
19651;SDS011;9974;52.146;14.668;2022-08-02T09:36:17;3.92;;;2.30;;
19651;SDS011;9974;52.146;14.668;2022-08-02T09:38:53;7.13;;;2.00;;
19651;SDS011;9974;52.146;14.668;2022-08-02T09:41:31;7.03;;;1.50;;
19651;SDS011;9974;52.146;14.668;2022-08-02T09:44:01;11.25;;;1.77;;
19651;SDS011;9974;52.146;14.668;2022-08-02T09:46:29;7.20;;;1.77;;
19651;SDS011;9974;52.146;14.668;2022-08-02T09:49:05;6.93;;;2.03;;
19651;SDS011;9974;52.146;14.668;2022-08-02T09:54:17;4.63;;;1.42;;
19651;SDS011;9974;52.146;14.668;2022-08-02T09:56:53;4.40;;;1.67;;
19651;SDS011;9974;52.146;14.668;2022-08-02T09:59:25;5.82;;;1.67;;
19651;SDS011;9974;52.146;14.668;2022-08-02T10:01:52;5.35;;;1.83;;
19651;SDS011;9974;52.146;14.668;2022-08-02T10:04:23;8.30;;;2.28;;
19651;SDS011;9974;52.146;14.668;2022-08-02T10:06:52;7.03;;;1.95;;
19651;SDS011;9974;52.146;14.668;2022-08-02T10:09:18;9.75;;;2.38;;
19651;SDS011;9974;52.146;14.668;2022-08-02T10:11:44;8.55;;;1.83;;
19651;SDS011;9974;52.146;14.668;2022-08-02T10:14:11;8.85;;;1.90;;
19651;SDS011;9974;52.146;14.668;2022-08-02T10:16:38;10.13;;;2.03;;
19651;SDS011;9974;52.146;14.668;2022-08-02T10:19:06;5.10;;;1.90;;
19651;SDS011;9974;52.146;14.668;2022-08-02T10:21:36;4.38;;;2.05;;
19651;SDS011;9974;52.146;14.668;2022-08-02T10:24:21;5.95;;;1.95;;
19651;SDS011;9974;52.146;14.668;2022-08-02T10:26:51;7.78;;;1.90;;
19651;SDS011;9974;52.146;14.668;2022-08-02T10:29:19;5.95;;;1.95;;
19651;SDS011;9974;52.146;14.668;2022-08-02T10:32:11;9.10;;;2.03;;
19651;SDS011;9974;52.146;14.668;2022-08-02T10:34:44;3.97;;;2.00;;
19651;SDS011;9974;52.146;14.668;2022-08-02T10:37:19;6.82;;;2.25;;
19651;SDS011;9974;52.146;14.668;2022-08-02T10:39:53;8.52;;;1.92;;
19651;SDS011;9974;52.146;14.668;2022-08-02T10:45:15;5.47;;;1.85;;
19651;SDS011;9974;52.146;14.668;2022-08-02T10:53:26;6.00;;;2.22;;
19651;SDS011;9974;52.146;14.668;2022-08-02T10:55:55;3.78;;;2.22;;
19651;SDS011;9974;52.146;14.668;2022-08-02T10:58:28;3.03;;;1.85;;
19651;SDS011;9974;52.146;14.668;2022-08-02T11:00:56;3.38;;;2.15;;
19651;SDS011;9974;52.146;14.668;2022-08-02T11:06:03;7.95;;;1.90;;
19651;SDS011;9974;52.146;14.668;2022-08-02T11:08:31;5.40;;;1.95;;
19651;SDS011;9974;52.146;14.668;2022-08-02T11:10:58;4.30;;;2.05;;
19651;SDS011;9974;52.146;14.668;2022-08-02T11:13:26;3.78;;;1.88;;
19651;SDS011;9974;52.146;14.668;2022-08-02T11:15:55;5.72;;;1.88;;
19651;SDS011;9974;52.146;14.668;2022-08-02T11:21:22;7.60;;;2.30;;
19651;SDS011;9974;52.146;14.668;2022-08-02T11:23:54;6.70;;;1.90;;
19651;SDS011;9974;52.146;14.668;2022-08-02T11:28:56;3.70;;;1.90;;
19651;SDS011;9974;52.146;14.668;2022-08-02T11:31:28;5.63;;;2.42;;
19651;SDS011;9974;52.146;14.668;2022-08-02T11:34:03;2.80;;;1.83;;
19651;SDS011;9974;52.146;14.668;2022-08-02T11:36:30;4.97;;;2.00;;
19651;SDS011;9974;52.146;14.668;2022-08-02T11:41:55;3.35;;;1.77;;
19651;SDS011;9974;52.146;14.668;2022-08-02T11:44:23;2.33;;;1.75;;
19651;SDS011;9974;52.146;14.668;2022-08-02T11:46:54;4.05;;;2.08;;
19651;SDS011;9974;52.146;14.668;2022-08-02T11:49:24;5.82;;;2.00;;
19651;SDS011;9974;52.146;14.668;2022-08-02T11:51:51;4.10;;;1.80;;
19651;SDS011;9974;52.146;14.668;2022-08-02T11:54:38;7.50;;;2.28;;
19651;SDS011;9974;52.146;14.668;2022-08-02T11:57:19;3.28;;;1.67;;
19651;SDS011;9974;52.146;14.668;2022-08-02T11:59:47;2.33;;;1.60;;
19651;SDS011;9974;52.146;14.668;2022-08-02T12:02:19;2.90;;;1.55;;
19651;SDS011;9974;52.146;14.668;2022-08-02T12:04:51;8.93;;;1.75;;
19651;SDS011;9974;52.146;14.668;2022-08-02T12:07:26;3.05;;;1.38;;
19651;SDS011;9974;52.146;14.668;2022-08-02T12:09:58;2.33;;;1.35;;
19651;SDS011;9974;52.146;14.668;2022-08-02T12:12:26;4.03;;;1.60;;
19651;SDS011;9974;52.146;14.668;2022-08-02T12:14:52;3.22;;;1.90;;
19651;SDS011;9974;52.146;14.668;2022-08-02T12:17:25;3.25;;;1.73;;
19651;SDS011;9974;52.146;14.668;2022-08-02T12:20:10;3.70;;;1.38;;
19651;SDS011;9974;52.146;14.668;2022-08-02T12:22:37;5.10;;;1.58;;
19651;SDS011;9974;52.146;14.668;2022-08-02T12:25:17;3.05;;;1.48;;
19651;SDS011;9974;52.146;14.668;2022-08-02T12:27:46;2.80;;;1.67;;
19651;SDS011;9974;52.146;14.668;2022-08-02T12:30:14;2.15;;;1.33;;
19651;SDS011;9974;52.146;14.668;2022-08-02T12:32:42;3.03;;;1.73;;
19651;SDS011;9974;52.146;14.668;2022-08-02T12:35:15;3.80;;;1.83;;
19651;SDS011;9974;52.146;14.668;2022-08-02T12:37:47;3.53;;;1.50;;
19651;SDS011;9974;52.146;14.668;2022-08-02T12:43:00;2.85;;;1.48;;
19651;SDS011;9974;52.146;14.668;2022-08-02T12:45:30;2.55;;;1.70;;
19651;SDS011;9974;52.146;14.668;2022-08-02T12:48:09;3.88;;;1.80;;
19651;SDS011;9974;52.146;14.668;2022-08-02T12:50:35;6.30;;;1.73;;
19651;SDS011;9974;52.146;14.668;2022-08-02T12:53:03;2.67;;;1.50;;
19651;SDS011;9974;52.146;14.668;2022-08-02T12:55:50;1.60;;;1.20;;
19651;SDS011;9974;52.146;14.668;2022-08-02T12:58:19;4.43;;;1.55;;
19651;SDS011;9974;52.146;14.668;2022-08-02T13:00:55;3.05;;;1.33;;
19651;SDS011;9974;52.146;14.668;2022-08-02T13:03:23;2.10;;;1.35;;
19651;SDS011;9974;52.146;14.668;2022-08-02T13:05:49;4.65;;;1.00;;
19651;SDS011;9974;52.146;14.668;2022-08-02T13:08:15;3.33;;;1.30;;
19651;SDS011;9974;52.146;14.668;2022-08-02T13:10:41;2.60;;;1.33;;
19651;SDS011;9974;52.146;14.668;2022-08-02T13:13:08;3.53;;;1.40;;
19651;SDS011;9974;52.146;14.668;2022-08-02T13:15:34;3.42;;;1.42;;
19651;SDS011;9974;52.146;14.668;2022-08-02T13:18:00;7.05;;;1.70;;
19651;SDS011;9974;52.146;14.668;2022-08-02T13:20:27;3.50;;;1.48;;
19651;SDS011;9974;52.146;14.668;2022-08-02T13:22:53;3.97;;;1.20;;
19651;SDS011;9974;52.146;14.668;2022-08-02T13:25:20;1.88;;;1.35;;
19651;SDS011;9974;52.146;14.668;2022-08-02T13:27:47;4.22;;;1.55;;
19651;SDS011;9974;52.146;14.668;2022-08-02T13:30:14;4.30;;;1.80;;
19651;SDS011;9974;52.146;14.668;2022-08-02T13:32:40;3.78;;;1.50;;
19651;SDS011;9974;52.146;14.668;2022-08-02T13:35:06;2.90;;;2.05;;
19651;SDS011;9974;52.146;14.668;2022-08-02T13:37:33;2.00;;;1.08;;
19651;SDS011;9974;52.146;14.668;2022-08-02T13:39:59;6.53;;;2.65;;
19651;SDS011;9974;52.146;14.668;2022-08-02T13:42:25;4.78;;;1.40;;
19651;SDS011;9974;52.146;14.668;2022-08-02T13:44:51;6.18;;;1.17;;
19651;SDS011;9974;52.146;14.668;2022-08-02T13:47:17;3.38;;;1.30;;
19651;SDS011;9974;52.146;14.668;2022-08-02T13:49:43;3.33;;;1.23;;
19651;SDS011;9974;52.146;14.668;2022-08-02T13:52:10;2.47;;;1.30;;
19651;SDS011;9974;52.146;14.668;2022-08-02T13:54:35;9.15;;;2.28;;
19651;SDS011;9974;52.146;14.668;2022-08-02T13:57:01;4.07;;;1.30;;
19651;SDS011;9974;52.146;14.668;2022-08-02T13:59:27;2.80;;;1.48;;
19651;SDS011;9974;52.146;14.668;2022-08-02T14:01:53;1.73;;;1.17;;
19651;SDS011;9974;52.146;14.668;2022-08-02T14:04:21;4.47;;;1.30;;
19651;SDS011;9974;52.146;14.668;2022-08-02T14:06:47;2.28;;;1.30;;
19651;SDS011;9974;52.146;14.668;2022-08-02T14:09:13;2.28;;;1.17;;
19651;SDS011;9974;52.146;14.668;2022-08-02T14:11:39;2.22;;;1.00;;
19651;SDS011;9974;52.146;14.668;2022-08-02T14:14:05;4.05;;;1.50;;
19651;SDS011;9974;52.146;14.668;2022-08-02T14:16:31;2.92;;;1.52;;
19651;SDS011;9974;52.146;14.668;2022-08-02T14:18:57;4.15;;;1.42;;
19651;SDS011;9974;52.146;14.668;2022-08-02T14:21:23;2.65;;;1.35;;
19651;SDS011;9974;52.146;14.668;2022-08-02T14:23:49;2.83;;;1.30;;
19651;SDS011;9974;52.146;14.668;2022-08-02T14:26:14;4.15;;;1.75;;
19651;SDS011;9974;52.146;14.668;2022-08-02T14:28:40;2.58;;;1.40;;
19651;SDS011;9974;52.146;14.668;2022-08-02T14:31:06;2.60;;;1.40;;
19651;SDS011;9974;52.146;14.668;2022-08-02T14:33:32;4.18;;;1.10;;
19651;SDS011;9974;52.146;14.668;2022-08-02T14:35:58;1.55;;;0.88;;
19651;SDS011;9974;52.146;14.668;2022-08-02T14:38:24;5.47;;;1.38;;
19651;SDS011;9974;52.146;14.668;2022-08-02T14:40:50;1.55;;;0.98;;
19651;SDS011;9974;52.146;14.668;2022-08-02T14:43:16;3.05;;;1.23;;
19651;SDS011;9974;52.146;14.668;2022-08-02T14:46:01;2.70;;;1.35;;
19651;SDS011;9974;52.146;14.668;2022-08-02T14:48:27;4.40;;;1.10;;
19651;SDS011;9974;52.146;14.668;2022-08-02T14:50:53;3.58;;;1.27;;
19651;SDS011;9974;52.146;14.668;2022-08-02T14:53:19;2.95;;;1.17;;
19651;SDS011;9974;52.146;14.668;2022-08-02T14:55:45;1.50;;;0.98;;
19651;SDS011;9974;52.146;14.668;2022-08-02T14:58:11;2.03;;;1.20;;
19651;SDS011;9974;52.146;14.668;2022-08-02T15:00:38;2.75;;;1.10;;
19651;SDS011;9974;52.146;14.668;2022-08-02T15:03:04;2.92;;;1.00;;
19651;SDS011;9974;52.146;14.668;2022-08-02T15:05:30;3.90;;;1.33;;
19651;SDS011;9974;52.146;14.668;2022-08-02T15:07:56;3.08;;;1.67;;
19651;SDS011;9974;52.146;14.668;2022-08-02T15:10:22;3.80;;;1.15;;
19651;SDS011;9974;52.146;14.668;2022-08-02T15:12:48;1.00;;;0.85;;
19651;SDS011;9974;52.146;14.668;2022-08-02T15:15:14;3.42;;;1.23;;
19651;SDS011;9974;52.146;14.668;2022-08-02T15:17:40;1.85;;;1.10;;
19651;SDS011;9974;52.146;14.668;2022-08-02T15:20:06;3.58;;;1.00;;
19651;SDS011;9974;52.146;14.668;2022-08-02T15:22:32;5.93;;;1.10;;
19651;SDS011;9974;52.146;14.668;2022-08-02T15:24:59;5.40;;;1.30;;